Fort Chaffee, Arkansas
Current Conditions -  °F | °C
As of 11:53 AM on Friday 24 Oct 2014 (Local Time) from KFSM Reporting Station
Clear Clear  
Wind Chill: 67°   Ceiling: Unl
Heat Index: 67°   Visibility: 10mi
Dew Point: 54°   Wind: 5mph
Humidity: 63%   Direction: 20°NNE
Pressure: 30.16"   Gusts: NA
Location:  35.2393°N, 94.1304°W
Report Text: KFSM 241653Z 02004KT 10SM R25/4000VP6000FT CLR 19/12 A3016 RMK AO2 SLP209 T01940122
Loading
Personal Weather Stations






























Interactive Weather Map
Tropical Storm Tracking
New forecast layout! Learn more

10-Day Weather Forecast

Advertisements
Track Severe Weather on mobile